Time;durP1;ratioP1;P1;durP2;ratioP2;P2;SDS_P1;SDS_P2;PMS_P1;PMS_P2;Temp;Humidity;BMP_temperature;BMP_pressure;BME280_temperature;BME280_humidity;BME280_pressure;Samples;Min_cycle;Max_cycle;Signal;HPM_P1;HPM_P2
2023/04/14 00:02:34;;;;;;;9.15;3.10;;;;;;;;;;5000067;28;20026;-71
2023/04/14 00:05:19;;;;;;;8.48;2.97;;;;;;;;;;5006834;28;20480;-71
2023/04/14 00:08:05;;;;;;;7.60;3.17;;;;;;;;;;5004625;28;20059;-72
2023/04/14 00:10:50;;;;;;;6.15;2.28;;;;;;;;;;4998518;28;20507;-75
2023/04/14 00:13:35;;;;;;;10.65;2.72;;;;;;;;;;5008481;28;20134;-73
2023/04/14 00:16:20;;;;;;;3.63;2.20;;;;;;;;;;4989557;28;20504;-72
2023/04/14 00:19:06;;;;;;;6.60;2.55;;;;;;;;;;4996205;28;20038;-72
2023/04/14 00:21:51;;;;;;;7.28;3.25;;;;;;;;;;4996330;28;20037;-72
2023/04/14 00:24:41;;;;;;;7.40;2.40;;;;;;;;;;5006069;28;20029;-78
2023/04/14 00:27:27;;;;;;;4.22;2.25;;;;;;;;;;4995988;28;20088;-78
2023/04/14 00:30:12;;;;;;;7.57;2.38;;;;;;;;;;4998629;28;20555;-77
2023/04/14 00:32:58;;;;;;;4.93;2.45;;;;;;;;;;4998796;28;20498;-77
2023/04/14 00:35:43;;;;;;;6.68;2.40;;;;;;;;;;4997072;28;20084;-80
2023/04/14 00:38:28;;;;;;;8.15;2.78;;;;;;;;;;4988381;28;20029;-78
2023/04/14 00:41:13;;;;;;;5.05;2.05;;;;;;;;;;4989600;28;20034;-71
2023/04/14 00:44:00;;;;;;;6.75;2.60;;;;;;;;;;4994757;28;20215;-79
2023/04/14 00:46:46;;;;;;;6.10;1.92;;;;;;;;;;4980675;28;20034;-80
2023/04/14 00:49:31;;;;;;;6.55;3.00;;;;;;;;;;5006476;28;20042;-81
2023/04/14 00:52:17;;;;;;;6.38;2.80;;;;;;;;;;4994056;28;20025;-80
2023/04/14 00:55:04;;;;;;;5.93;2.70;;;;;;;;;;4976224;28;20025;-81
2023/04/14 00:57:49;;;;;;;7.20;2.42;;;;;;;;;;4995292;28;20025;-78
2023/04/14 01:00:35;;;;;;;7.57;1.95;;;;;;;;;;5007978;28;20481;-76
2023/04/14 01:03:20;;;;;;;6.80;2.67;;;;;;;;;;4993418;28;20033;-79
2023/04/14 01:06:06;;;;;;;7.25;2.03;;;;;;;;;;4991168;28;20034;-78
2023/04/14 01:08:52;;;;;;;11.80;3.10;;;;;;;;;;4989186;28;20038;-78
2023/04/14 01:11:56;;;;;;;8.00;2.95;;;;;;;;;;4993366;28;20038;-80
2023/04/14 01:14:41;;;;;;;8.35;2.50;;;;;;;;;;4994933;28;20037;-80
2023/04/14 01:17:34;;;;;;;6.45;2.33;;;;;;;;;;5006661;28;20026;-79
2023/04/14 01:20:21;;;;;;;5.78;2.00;;;;;;;;;;4998833;28;20072;-74
2023/04/14 01:23:21;;;;;;;6.78;3.15;;;;;;;;;;4993565;28;20621;-72
2023/04/14 01:26:17;;;;;;;4.22;1.88;;;;;;;;;;5000137;28;20464;-72
2023/04/14 01:29:15;;;;;;;5.00;2.42;;;;;;;;;;4990590;28;20124;-75
2023/04/14 01:32:04;;;;;;;4.35;2.30;;;;;;;;;;4995790;28;20036;-74
2023/04/14 01:34:52;;;;;;;4.78;1.98;;;;;;;;;;4996260;28;20042;-76
2023/04/14 01:37:42;;;;;;;4.85;2.38;;;;;;;;;;4998729;28;20488;-75
2023/04/14 01:40:29;;;;;;;5.20;1.98;;;;;;;;;;4983174;28;20072;-81
2023/04/14 01:43:15;;;;;;;5.32;2.10;;;;;;;;;;4993438;28;20099;-80
2023/04/14 01:46:03;;;;;;;8.40;2.47;;;;;;;;;;4996841;28;20029;-81
2023/04/14 01:48:49;;;;;;;10.52;2.20;;;;;;;;;;5007844;28;20606;-81
2023/04/14 01:51:35;;;;;;;4.57;1.50;;;;;;;;;;4979773;28;20048;-82
2023/04/14 01:54:21;;;;;;;8.75;2.78;;;;;;;;;;4994550;28;20029;-74
2023/04/14 01:57:07;;;;;;;8.13;2.30;;;;;;;;;;4978577;28;20026;-74
2023/04/14 01:59:55;;;;;;;6.60;2.10;;;;;;;;;;4996778;28;20496;-76
2023/04/14 02:02:42;;;;;;;6.28;2.40;;;;;;;;;;4974612;28;20026;-74
2023/04/14 02:05:28;;;;;;;9.15;2.95;;;;;;;;;;4988829;28;20034;-74
2023/04/14 02:08:15;;;;;;;6.72;1.95;;;;;;;;;;4969326;28;20480;-72
2023/04/14 02:11:01;;;;;;;6.10;2.03;;;;;;;;;;4986626;28;20467;-75
2023/04/14 02:13:47;;;;;;;7.47;2.03;;;;;;;;;;4997897;28;20060;-75
2023/04/14 02:16:32;;;;;;;6.65;1.88;;;;;;;;;;4999074;28;20751;-72
2023/04/14 02:19:19;;;;;;;5.03;2.28;;;;;;;;;;4994228;28;20041;-73
2023/04/14 02:22:04;;;;;;;11.77;2.92;;;;;;;;;;4986213;28;20539;-73
2023/04/14 02:24:51;;;;;;;8.63;3.08;;;;;;;;;;4991225;28;20504;-71
2023/04/14 02:27:39;;;;;;;5.30;1.90;;;;;;;;;;4984953;28;20122;-75
2023/04/14 02:30:29;;;;;;;5.63;1.88;;;;;;;;;;4995017;28;20452;-72
2023/04/14 02:33:20;;;;;;;10.27;2.78;;;;;;;;;;5016951;28;20057;-80
2023/04/14 02:36:12;;;;;;;11.60;3.25;;;;;;;;;;4985924;28;20049;-74
2023/04/14 02:38:59;;;;;;;5.78;1.80;;;;;;;;;;4982366;28;20099;-75
2023/04/14 02:41:45;;;;;;;6.72;2.00;;;;;;;;;;4999424;28;20038;-73
2023/04/14 02:44:37;;;;;;;7.63;1.90;;;;;;;;;;4994352;28;20523;-75
2023/04/14 02:47:25;;;;;;;5.80;1.70;;;;;;;;;;4988876;28;20037;-75
2023/04/14 02:50:12;;;;;;;6.20;1.88;;;;;;;;;;4996639;28;20026;-71
2023/04/14 02:52:59;;;;;;;6.38;1.80;;;;;;;;;;4996741;28;20056;-75
2023/04/14 02:55:45;;;;;;;6.43;1.90;;;;;;;;;;4983005;28;20037;-77
2023/04/14 02:58:31;;;;;;;4.47;1.92;;;;;;;;;;4996216;28;20030;-76
2023/04/14 03:01:17;;;;;;;4.85;1.63;;;;;;;;;;4996068;28;20030;-73
2023/04/14 03:04:02;;;;;;;5.75;2.28;;;;;;;;;;4989550;28;20062;-74
2023/04/14 03:06:48;;;;;;;7.95;2.88;;;;;;;;;;5007511;28;20328;-73
2023/04/14 03:09:33;;;;;;;7.20;2.47;;;;;;;;;;4996621;28;20034;-75
2023/04/14 03:12:20;;;;;;;10.55;2.17;;;;;;;;;;4996767;28;20469;-80
2023/04/14 03:15:06;;;;;;;6.65;2.08;;;;;;;;;;4996600;28;20504;-79
2023/04/14 03:17:56;;;;;;;5.00;2.35;;;;;;;;;;4990113;28;20146;-79
2023/04/14 03:20:43;;;;;;;;;;;;;;;;;;4996050;28;20523;-83
2023/04/14 03:23:29;;;;;;;10.32;2.30;;;;;;;;;;4994189;28;19964;-81
2023/04/14 03:26:19;;;;;;;2.63;1.83;;;;;;;;;;4990153;28;20480;-81
2023/04/14 03:29:06;;;;;;;5.72;2.10;;;;;;;;;;4977332;28;20065;-71
2023/04/14 03:31:54;;;;;;;4.53;2.25;;;;;;;;;;4992400;28;20088;-73
2023/04/14 03:34:45;;;;;;;3.05;1.80;;;;;;;;;;4995987;28;20443;-72
2023/04/14 03:37:31;;;;;;;5.88;2.58;;;;;;;;;;4988837;28;20112;-73
2023/04/14 03:40:17;;;;;;;5.00;1.85;;;;;;;;;;4994982;28;20488;-74
2023/04/14 03:43:04;;;;;;;7.60;2.20;;;;;;;;;;4995579;28;20029;-73
2023/04/14 03:45:50;;;;;;;6.78;2.10;;;;;;;;;;5008592;28;20038;-80
2023/04/14 03:48:41;;;;;;;5.05;2.28;;;;;;;;;;4980744;28;20037;-72
2023/04/14 03:51:27;;;;;;;6.60;1.90;;;;;;;;;;4995486;28;20117;-75
2023/04/14 03:54:14;;;;;;;8.35;2.38;;;;;;;;;;4980777;28;20029;-72
2023/04/14 03:57:03;;;;;;;7.03;2.10;;;;;;;;;;4993902;28;20088;-72
2023/04/14 03:59:49;;;;;;;8.00;2.90;;;;;;;;;;4998121;28;20481;-71
2023/04/14 04:02:35;;;;;;;6.15;2.53;;;;;;;;;;4989745;28;20053;-76
2023/04/14 04:05:20;;;;;;;3.75;1.80;;;;;;;;;;4986416;28;20033;-80
2023/04/14 04:08:07;;;;;;;6.97;2.75;;;;;;;;;;4989392;28;20400;-72
2023/04/14 04:10:54;;;;;;;6.00;2.60;;;;;;;;;;4979724;28;20116;-71
2023/04/14 04:13:40;;;;;;;7.30;1.80;;;;;;;;;;4975395;28;20061;-72
2023/04/14 04:16:27;;;;;;;5.75;2.05;;;;;;;;;;4979446;28;20029;-72
2023/04/14 04:19:12;;;;;;;12.30;2.67;;;;;;;;;;4979817;28;20045;-72
2023/04/14 04:21:58;;;;;;;8.30;2.85;;;;;;;;;;4978698;28;20112;-73
2023/04/14 04:24:44;;;;;;;6.43;2.00;;;;;;;;;;4993569;28;20029;-72
2023/04/14 04:27:29;;;;;;;8.25;2.30;;;;;;;;;;4982210;28;20030;-71
2023/04/14 04:30:15;;;;;;;7.35;1.90;;;;;;;;;;4989425;28;20421;-74
2023/04/14 04:33:02;;;;;;;7.43;3.08;;;;;;;;;;4980398;28;20030;-73
2023/04/14 04:35:47;;;;;;;5.32;2.00;;;;;;;;;;4994737;28;20042;-73
2023/04/14 04:38:32;;;;;;;7.28;3.15;;;;;;;;;;4992759;28;20045;-72
2023/04/14 04:41:20;;;;;;;6.03;2.30;;;;;;;;;;4992844;28;20116;-73
2023/04/14 04:44:06;;;;;;;4.32;2.28;;;;;;;;;;4987707;28;20037;-74
2023/04/14 04:46:52;;;;;;;7.20;2.38;;;;;;;;;;4978942;28;20034;-75
2023/04/14 04:49:37;;;;;;;6.63;1.90;;;;;;;;;;4993315;28;20026;-72
2023/04/14 04:52:24;;;;;;;7.18;2.00;;;;;;;;;;4993965;28;20038;-75
2023/04/14 04:55:09;;;;;;;6.40;2.33;;;;;;;;;;4981266;28;20117;-76
2023/04/14 04:57:55;;;;;;;10.95;2.95;;;;;;;;;;4989447;28;20030;-79
2023/04/14 05:00:40;;;;;;;6.78;2.30;;;;;;;;;;4991700;28;20472;-75
2023/04/14 05:03:26;;;;;;;5.57;2.05;;;;;;;;;;4993707;28;20029;-73
2023/04/14 05:06:11;;;;;;;7.65;2.75;;;;;;;;;;4993338;28;20061;-72
2023/04/14 05:08:56;;;;;;;6.50;2.30;;;;;;;;;;4993436;28;20029;-72
2023/04/14 05:11:41;;;;;;;9.38;2.40;;;;;;;;;;4990718;28;20038;-72
2023/04/14 05:14:27;;;;;;;6.78;2.17;;;;;;;;;;4979957;28;20625;-72
2023/04/14 05:17:12;;;;;;;5.47;2.35;;;;;;;;;;4999986;28;20056;-80
2023/04/14 05:19:57;;;;;;;7.65;2.08;;;;;;;;;;4990007;28;20026;-80
2023/04/14 05:22:42;;;;;;;7.55;2.92;;;;;;;;;;5003785;28;20030;-82
2023/04/14 05:25:27;;;;;;;5.00;2.45;;;;;;;;;;5004591;28;20037;-80
2023/04/14 05:28:15;;;;;;;9.93;2.13;;;;;;;;;;4990822;28;20484;-82
2023/04/14 05:31:00;;;;;;;7.93;3.17;;;;;;;;;;4976369;28;20034;-78
2023/04/14 05:33:45;;;;;;;7.10;2.13;;;;;;;;;;5001469;28;20043;-86
2023/04/14 05:36:31;;;;;;;10.25;2.28;;;;;;;;;;4991653;28;20553;-70
2023/04/14 05:39:16;;;;;;;4.55;1.70;;;;;;;;;;5003039;28;20034;-71
2023/04/14 05:42:01;;;;;;;7.60;2.80;;;;;;;;;;4989612;28;20037;-69
2023/04/14 05:44:47;;;;;;;7.10;2.60;;;;;;;;;;4983054;28;20030;-74
2023/04/14 05:47:32;;;;;;;5.63;2.17;;;;;;;;;;4971591;28;20752;-73
2023/04/14 05:50:17;;;;;;;9.25;2.63;;;;;;;;;;4973246;28;20028;-76
2023/04/14 05:53:02;;;;;;;8.15;3.28;;;;;;;;;;4979129;28;20085;-74
2023/04/14 05:55:49;;;;;;;6.95;2.38;;;;;;;;;;4981170;28;20464;-71
2023/04/14 05:58:35;;;;;;;8.27;2.78;;;;;;;;;;4997021;28;20164;-71
2023/04/14 06:01:21;;;;;;;8.45;3.33;;;;;;;;;;4980859;28;20159;-71
2023/04/14 06:04:06;;;;;;;7.47;2.10;;;;;;;;;;5007752;28;20061;-70
2023/04/14 06:06:51;;;;;;;3.78;1.95;;;;;;;;;;4990661;28;20030;-68
2023/04/14 06:09:36;;;;;;;6.80;2.17;;;;;;;;;;4989156;28;20516;-68
2023/04/14 06:12:21;;;;;;;6.90;2.80;;;;;;;;;;4994305;28;20061;-79
2023/04/14 06:15:07;;;;;;;7.03;2.28;;;;;;;;;;4989433;28;20025;-78
2023/04/14 06:17:52;;;;;;;10.57;2.55;;;;;;;;;;4990852;28;20030;-78
2023/04/14 06:20:37;;;;;;;10.68;2.45;;;;;;;;;;5001053;28;20034;-76
2023/04/14 06:23:25;;;;;;;4.38;1.60;;;;;;;;;;4997939;28;20032;-77
2023/04/14 06:26:11;;;;;;;6.32;2.92;;;;;;;;;;4992547;28;20041;-78
2023/04/14 06:28:56;;;;;;;9.13;1.95;;;;;;;;;;4990787;28;20044;-77
2023/04/14 06:31:42;;;;;;;11.80;2.25;;;;;;;;;;4991212;28;20030;-72
2023/04/14 06:34:27;;;;;;;8.32;2.30;;;;;;;;;;4983318;28;20026;-76
2023/04/14 06:37:12;;;;;;;9.43;3.55;;;;;;;;;;5011416;28;20040;-72
2023/04/14 06:39:58;;;;;;;7.60;2.72;;;;;;;;;;4996068;28;20361;-73
2023/04/14 06:42:43;;;;;;;14.65;4.03;;;;;;;;;;5001604;28;20120;-72
2023/04/14 06:45:28;;;;;;;6.70;2.80;;;;;;;;;;4983707;28;20068;-72
2023/04/14 06:48:14;;;;;;;15.98;3.22;;;;;;;;;;4995172;28;20112;-77
2023/04/14 06:50:59;;;;;;;9.73;2.90;;;;;;;;;;4991817;28;20625;-68
2023/04/14 06:53:44;;;;;;;6.75;2.53;;;;;;;;;;4997588;28;20102;-73
2023/04/14 06:56:30;;;;;;;6.32;2.60;;;;;;;;;;4978058;28;20033;-72
2023/04/14 06:59:15;;;;;;;10.48;3.00;;;;;;;;;;4996961;28;20036;-72
2023/04/14 07:02:00;;;;;;;7.82;2.95;;;;;;;;;;5003270;28;20109;-72
2023/04/14 07:04:46;;;;;;;7.80;3.00;;;;;;;;;;5010300;28;20057;-74
2023/04/14 07:07:35;;;;;;;7.50;2.63;;;;;;;;;;4995820;28;20485;-75
2023/04/14 07:10:20;;;;;;;9.88;2.92;;;;;;;;;;4978037;28;20069;-74
2023/04/14 07:13:05;;;;;;;6.43;3.10;;;;;;;;;;4997067;28;20112;-75
2023/04/14 07:15:50;;;;;;;7.00;3.05;;;;;;;;;;5010789;28;20038;-73
2023/04/14 07:18:36;;;;;;;7.88;2.70;;;;;;;;;;4996516;28;20036;-74
2023/04/14 07:21:21;;;;;;;10.70;3.30;;;;;;;;;;4982877;28;20028;-75
2023/04/14 07:24:06;;;;;;;6.88;2.35;;;;;;;;;;4997195;28;20088;-74
2023/04/14 07:26:51;;;;;;;8.32;3.00;;;;;;;;;;5010344;28;20091;-79
2023/04/14 07:29:37;;;;;;;10.18;4.00;;;;;;;;;;4996754;28;20108;-76
2023/04/14 07:32:22;;;;;;;9.13;2.72;;;;;;;;;;4976902;28;20026;-76
2023/04/14 07:35:09;;;;;;;12.90;3.60;;;;;;;;;;4996006;28;20037;-74
2023/04/14 07:37:54;;;;;;;6.65;2.65;;;;;;;;;;4996862;28;20040;-73
2023/04/14 07:40:40;;;;;;;11.20;3.88;;;;;;;;;;4996255;28;20412;-74
2023/04/14 07:43:26;;;;;;;9.82;3.33;;;;;;;;;;4996556;28;20365;-72
2023/04/14 07:46:11;;;;;;;11.82;3.58;;;;;;;;;;5009397;28;20384;-73
2023/04/14 07:48:56;;;;;;;11.65;2.72;;;;;;;;;;4977749;28;20053;-70
2023/04/14 07:51:42;;;;;;;5.57;2.42;;;;;;;;;;5000434;28;20030;-68
2023/04/14 07:54:28;;;;;;;7.10;2.92;;;;;;;;;;4996173;28;20033;-68
2023/04/14 07:57:14;;;;;;;7.75;2.60;;;;;;;;;;4995417;28;20040;-69
2023/04/14 07:59:59;;;;;;;7.40;2.80;;;;;;;;;;4996297;28;20069;-68
2023/04/14 08:02:45;;;;;;;8.35;2.75;;;;;;;;;;5010017;28;20117;-74
2023/04/14 08:05:30;;;;;;;8.27;3.42;;;;;;;;;;5025455;22;20045;-75
2023/04/14 08:08:15;;;;;;;8.65;3.22;;;;;;;;;;4996095;28;20034;-76
2023/04/14 08:11:01;;;;;;;4.95;2.60;;;;;;;;;;5025573;28;20109;-74
2023/04/14 08:13:48;;;;;;;6.47;2.30;;;;;;;;;;5016158;28;20036;-73
2023/04/14 08:16:35;;;;;;;5.82;1.75;;;;;;;;;;5028061;28;20026;-77
2023/04/14 08:19:20;;;;;;;5.97;2.00;;;;;;;;;;5015927;28;20034;-72
2023/04/14 08:22:05;;;;;;;4.15;1.65;;;;;;;;;;5027889;28;20091;-72
2023/04/14 08:24:51;;;;;;;6.35;2.60;;;;;;;;;;5028047;28;20021;-73
2023/04/14 08:27:36;;;;;;;6.07;3.05;;;;;;;;;;5008114;28;20508;-73
2023/04/14 08:30:22;;;;;;;9.52;3.15;;;;;;;;;;5015221;28;20376;-75
2023/04/14 08:33:08;;;;;;;10.63;3.10;;;;;;;;;;5028655;28;20049;-72
2023/04/14 08:35:53;;;;;;;6.15;3.20;;;;;;;;;;5027314;28;20029;-74
2023/04/14 08:38:38;;;;;;;6.45;2.78;;;;;;;;;;5018385;28;20045;-78
2023/04/14 08:41:24;;;;;;;8.02;2.75;;;;;;;;;;5028834;28;20033;-78
2023/04/14 08:44:09;;;;;;;6.55;2.20;;;;;;;;;;5029487;28;20044;-77
2023/04/14 08:46:55;;;;;;;6.55;2.05;;;;;;;;;;5026730;28;20026;-78
2023/04/14 08:49:44;;;;;;;7.22;2.78;;;;;;;;;;5017912;28;20036;-82
2023/04/14 08:52:30;;;;;;;6.13;2.00;;;;;;;;;;5024433;28;20040;-77
2023/04/14 08:55:16;;;;;;;6.30;1.63;;;;;;;;;;5027131;28;20530;-85
2023/04/14 08:58:02;;;;;;;4.93;1.50;;;;;;;;;;4995920;28;20040;-73
2023/04/14 09:00:48;;;;;;;6.15;1.77;;;;;;;;;;5038496;28;20037;-71
2023/04/14 09:03:33;;;;;;;6.25;1.85;;;;;;;;;;5028432;28;20471;-72
2023/04/14 09:06:19;;;;;;;5.55;1.98;;;;;;;;;;5026389;28;20040;-72
2023/04/14 09:09:09;;;;;;;5.18;1.83;;;;;;;;;;5028597;28;20044;-71
2023/04/14 09:11:55;;;;;;;4.80;1.80;;;;;;;;;;5028391;28;20391;-70
2023/04/14 09:14:41;;;;;;;6.78;2.13;;;;;;;;;;5014861;28;20029;-71
2023/04/14 09:17:28;;;;;;;3.05;1.42;;;;;;;;;;5027561;28;20069;-71
2023/04/14 09:20:13;;;;;;;6.60;1.92;;;;;;;;;;5014760;28;20068;-79
2023/04/14 09:22:58;;;;;;;4.65;1.77;;;;;;;;;;5027878;28;20065;-80
2023/04/14 09:25:43;;;;;;;8.63;2.40;;;;;;;;;;5027706;28;20036;-79
2023/04/14 09:28:29;;;;;;;6.50;2.70;;;;;;;;;;5027331;28;20042;-79
2023/04/14 09:31:14;;;;;;;4.35;1.90;;;;;;;;;;5028416;28;20033;-78
2023/04/14 09:34:00;;;;;;;5.22;2.10;;;;;;;;;;5028548;28;20077;-70
2023/04/14 09:36:59;;;;;;;9.32;2.47;;;;;;;;;;5027307;28;20045;-73
2023/04/14 09:39:53;;;;;;;4.90;1.88;;;;;;;;;;5022919;28;20147;-70
2023/04/14 09:42:39;;;;;;;5.45;1.50;;;;;;;;;;5008218;28;20060;-71
2023/04/14 09:45:50;;;;;;;5.75;2.05;;;;;;;;;;5027372;28;20478;-71
2023/04/14 09:48:48;;;;;;;4.15;1.77;;;;;;;;;;5022479;28;20033;-72
2023/04/14 09:51:33;;;;;;;5.90;2.25;;;;;;;;;;5034194;28;20021;-71
2023/04/14 09:54:24;;;;;;;6.78;2.22;;;;;;;;;;5027915;28;20029;-72
2023/04/14 09:57:10;;;;;;;4.38;1.60;;;;;;;;;;5025781;28;20033;-72
2023/04/14 09:59:55;;;;;;;5.70;2.00;;;;;;;;;;5016038;28;20037;-74
2023/04/14 10:02:47;;;;;;;6.15;1.60;;;;;;;;;;5026561;28;20124;-74
2023/04/14 10:05:33;;;;;;;7.03;2.05;;;;;;;;;;5026969;28;20041;-74
2023/04/14 10:08:18;;;;;;;5.90;1.70;;;;;;;;;;5026461;28;20069;-74
2023/04/14 10:11:19;;;;;;;3.75;1.95;;;;;;;;;;5027117;28;20075;-71
2023/04/14 10:14:05;;;;;;;7.03;2.30;;;;;;;;;;5027830;28;20069;-75
2023/04/14 10:16:50;;;;;;;8.75;2.30;;;;;;;;;;5026337;28;20046;-73
2023/04/14 10:19:36;;;;;;;8.25;2.00;;;;;;;;;;5006500;28;20037;-73
2023/04/14 10:22:22;;;;;;;8.02;3.20;;;;;;;;;;5026873;28;20408;-73
2023/04/14 10:25:08;;;;;;;4.72;1.80;;;;;;;;;;5014360;28;20043;-74
2023/04/14 10:27:55;;;;;;;5.63;1.77;;;;;;;;;;5007707;28;20038;-75
2023/04/14 10:30:42;;;;;;;8.25;2.47;;;;;;;;;;5027317;28;20033;-74
2023/04/14 10:33:28;;;;;;;6.82;2.20;;;;;;;;;;5027705;28;20472;-80
2023/04/14 10:36:21;;;;;;;5.45;1.73;;;;;;;;;;5026676;28;20045;-78
2023/04/14 10:39:08;;;;;;;5.50;1.95;;;;;;;;;;5041508;28;20080;-79
2023/04/14 10:41:54;;;;;;;6.63;2.22;;;;;;;;;;5031307;28;20635;-81
2023/04/14 10:44:39;;;;;;;6.25;1.95;;;;;;;;;;5031405;28;20037;-78
2023/04/14 10:47:25;;;;;;;6.68;2.20;;;;;;;;;;5015172;28;20212;-77
2023/04/14 10:50:14;;;;;;;5.40;2.10;;;;;;;;;;5027133;28;20037;-71
2023/04/14 10:53:05;;;;;;;5.30;2.25;;;;;;;;;;5026532;28;20043;-71
2023/04/14 10:55:52;;;;;;;5.90;1.55;;;;;;;;;;5030928;28;20041;-73
2023/04/14 10:58:37;;;;;;;5.82;1.95;;;;;;;;;;5022999;28;20071;-70
2023/04/14 11:01:30;;;;;;;6.25;1.90;;;;;;;;;;5031028;28;20029;-73
2023/04/14 11:04:17;;;;;;;8.57;2.22;;;;;;;;;;5030873;28;20116;-74
2023/04/14 11:07:07;;;;;;;4.90;1.83;;;;;;;;;;5029868;28;20052;-75
2023/04/14 11:09:57;;;;;;;7.30;2.65;;;;;;;;;;5030680;28;20458;-82
2023/04/14 11:12:42;;;;;;;;;;;;;;;;;;5030823;28;20502;-82
2023/04/14 11:15:47;;;;;;;6.45;1.80;;;;;;;;;;5010966;28;20394;-82
2023/04/14 11:18:33;;;;;;;4.18;1.70;;;;;;;;;;5028777;28;20034;-80
2023/04/14 11:21:18;;;;;;;4.60;2.25;;;;;;;;;;5029362;28;20033;-81
2023/04/14 11:24:03;;;;;;;5.72;1.77;;;;;;;;;;5030007;28;20387;-75
2023/04/14 11:26:55;;;;;;;8.43;2.20;;;;;;;;;;5029804;28;20116;-74
2023/04/14 11:29:40;;;;;;;5.85;1.95;;;;;;;;;;5016201;28;20095;-81
2023/04/14 11:32:26;;;;;;;9.00;2.22;;;;;;;;;;5030363;28;20095;-83
2023/04/14 11:35:11;;;;;;;9.68;2.45;;;;;;;;;;5030348;28;20112;-82
2023/04/14 11:37:57;;;;;;;5.25;1.85;;;;;;;;;;5022580;28;20439;-86
2023/04/14 11:40:47;;;;;;;7.57;2.42;;;;;;;;;;5031615;28;20041;-81
2023/04/14 11:43:32;;;;;;;;;;;;;;;;;;5001387;28;20383;-80
2023/04/14 11:46:23;;;;;;;4.63;1.85;;;;;;;;;;5025836;28;20053;-74
2023/04/14 11:49:09;;;;;;;5.25;1.92;;;;;;;;;;5016612;28;20033;-74
2023/04/14 11:51:55;;;;;;;4.63;1.67;;;;;;;;;;5023315;28;20380;-74
2023/04/14 11:54:40;;;;;;;3.50;1.50;;;;;;;;;;5022681;28;20220;-72
2023/04/14 11:57:26;;;;;;;6.88;1.55;;;;;;;;;;5022532;28;20041;-71
2023/04/14 12:00:14;;;;;;;4.93;2.50;;;;;;;;;;5020621;28;20106;-74
2023/04/14 12:03:03;;;;;;;7.90;2.33;;;;;;;;;;5023427;28;20145;-74
2023/04/14 12:05:48;;;;;;;5.37;1.93;;;;;;;;;;5026873;28;20472;-75
2023/04/14 12:08:33;;;;;;;4.05;1.85;;;;;;;;;;5025531;28;20039;-76
2023/04/14 12:11:19;;;;;;;5.05;1.80;;;;;;;;;;5012096;28;20090;-77
2023/04/14 12:14:04;;;;;;;4.78;1.65;;;;;;;;;;5028457;28;20033;-74
2023/04/14 12:16:50;;;;;;;4.50;1.50;;;;;;;;;;5027245;28;20044;-74
2023/04/14 12:19:36;;;;;;;3.88;1.45;;;;;;;;;;5012209;28;20033;-74
2023/04/14 12:22:23;;;;;;;6.72;1.40;;;;;;;;;;5038037;28;20502;-79
2023/04/14 12:25:11;;;;;;;4.55;1.35;;;;;;;;;;5025382;28;20030;-79
2023/04/14 12:27:56;;;;;;;5.38;1.73;;;;;;;;;;5025408;28;20091;-77
2023/04/14 12:30:50;;;;;;;6.45;2.10;;;;;;;;;;5027376;28;20083;-76
2023/04/14 12:33:35;;;;;;;6.13;2.15;;;;;;;;;;5022919;28;20034;-80
2023/04/14 12:36:20;;;;;;;5.57;2.10;;;;;;;;;;5027712;28;20112;-81
2023/04/14 12:39:07;;;;;;;4.15;1.55;;;;;;;;;;5027464;28;20835;-72
2023/04/14 12:41:56;;;;;;;4.32;2.10;;;;;;;;;;5026844;28;20518;-76
2023/04/14 12:44:52;;;;;;;6.97;1.87;;;;;;;;;;5027491;28;20087;-78
2023/04/14 12:47:38;;;;;;;5.88;1.80;;;;;;;;;;5024923;28;20339;-76
2023/04/14 12:50:25;;;;;;;6.30;2.03;;;;;;;;;;5019890;28;20112;-76
2023/04/14 12:53:23;;;;;;;6.75;2.13;;;;;;;;;;5010852;28;20036;-75
2023/04/14 12:56:09;;;;;;;8.95;1.70;;;;;;;;;;5024736;28;20059;-79
2023/04/14 12:58:54;;;;;;;5.43;2.67;;;;;;;;;;5026540;28;20116;-74
2023/04/14 13:01:39;;;;;;;4.70;1.67;;;;;;;;;;5027410;28;20029;-75
2023/04/14 13:04:25;;;;;;;3.90;1.70;;;;;;;;;;5011309;28;20119;-74
2023/04/14 13:07:10;;;;;;;5.70;1.42;;;;;;;;;;5011377;28;20041;-75
2023/04/14 13:09:55;;;;;;;4.95;1.23;;;;;;;;;;5027972;28;20138;-75
2023/04/14 13:12:41;;;;;;;2.10;1.23;;;;;;;;;;5027916;28;20124;-75
2023/04/14 13:15:26;;;;;;;3.92;1.30;;;;;;;;;;5018864;28;20099;-72
2023/04/14 13:18:11;;;;;;;5.72;1.77;;;;;;;;;;5028161;28;20037;-73
2023/04/14 13:20:57;;;;;;;4.07;1.45;;;;;;;;;;5008132;28;20041;-74
2023/04/14 13:23:42;;;;;;;3.60;1.50;;;;;;;;;;5027156;28;20120;-74
2023/04/14 13:26:27;;;;;;;6.28;2.08;;;;;;;;;;5027112;28;20029;-75
2023/04/14 13:29:13;;;;;;;4.15;1.40;;;;;;;;;;5027442;28;20025;-74
2023/04/14 13:31:58;;;;;;;7.43;1.92;;;;;;;;;;5024917;28;20041;-74
2023/04/14 13:34:45;;;;;;;5.93;1.35;;;;;;;;;;5012311;28;20064;-75
2023/04/14 13:37:30;;;;;;;2.65;1.40;;;;;;;;;;5011813;28;20032;-71
2023/04/14 13:40:15;;;;;;;3.00;1.25;;;;;;;;;;5026188;28;20403;-71
2023/04/14 13:43:00;;;;;;;3.95;1.27;;;;;;;;;;5026051;28;20051;-73
2023/04/14 13:45:46;;;;;;;6.97;2.20;;;;;;;;;;5026009;28;20033;-73
2023/04/14 13:48:31;;;;;;;9.02;1.58;;;;;;;;;;5020440;28;20037;-74
2023/04/14 13:51:17;;;;;;;3.38;1.30;;;;;;;;;;5027107;28;20042;-73
2023/04/14 13:54:02;;;;;;;4.80;1.65;;;;;;;;;;4999903;28;20074;-76
2023/04/14 13:56:47;;;;;;;4.38;1.50;;;;;;;;;;5018756;28;20549;-77
2023/04/14 13:59:33;;;;;;;6.43;2.35;;;;;;;;;;5026849;28;20061;-76
2023/04/14 14:02:18;;;;;;;6.10;2.20;;;;;;;;;;5020640;28;20507;-69
2023/04/14 14:05:04;;;;;;;4.88;1.50;;;;;;;;;;5027061;28;20041;-68
2023/04/14 14:07:50;;;;;;;7.40;2.53;;;;;;;;;;5026057;28;20042;-65
2023/04/14 14:10:35;;;;;;;6.93;1.95;;;;;;;;;;5023928;28;20121;-67
2023/04/14 14:13:20;;;;;;;5.65;1.30;;;;;;;;;;5024577;28;20034;-66
2023/04/14 14:16:06;;;;;;;5.07;1.73;;;;;;;;;;5030215;28;20044;-64
2023/04/14 14:18:52;;;;;;;3.88;1.52;;;;;;;;;;5024266;28;20098;-66
2023/04/14 14:21:37;;;;;;;5.07;1.52;;;;;;;;;;5029566;28;20038;-64
2023/04/14 14:24:22;;;;;;;4.43;1.65;;;;;;;;;;5028185;28;20391;-68
2023/04/14 14:27:07;;;;;;;2.58;1.33;;;;;;;;;;5028060;28;20033;-68
2023/04/14 14:29:53;;;;;;;3.00;1.40;;;;;;;;;;5030779;28;20029;-68
2023/04/14 14:32:38;;;;;;;3.10;1.27;;;;;;;;;;5029494;28;20522;-74
2023/04/14 14:35:23;;;;;;;4.07;1.30;;;;;;;;;;5023994;28;20034;-74
2023/04/14 14:38:08;;;;;;;4.20;1.88;;;;;;;;;;5012657;28;20032;-75
2023/04/14 14:40:54;;;;;;;5.30;1.58;;;;;;;;;;5030893;28;20033;-74
2023/04/14 14:43:39;;;;;;;5.57;1.60;;;;;;;;;;5030219;28;20029;-75
2023/04/14 14:46:24;;;;;;;2.80;1.75;;;;;;;;;;5029208;28;20677;-80
2023/04/14 14:49:10;;;;;;;3.58;1.50;;;;;;;;;;5027897;28;20120;-79
2023/04/14 14:51:56;;;;;;;4.10;1.42;;;;;;;;;;5024527;28;20102;-76
2023/04/14 14:54:41;;;;;;;5.68;2.28;;;;;;;;;;4993037;28;20033;-76
2023/04/14 14:57:26;;;;;;;2.83;1.17;;;;;;;;;;5028241;28;20088;-75
2023/04/14 15:00:12;;;;;;;2.85;1.58;;;;;;;;;;5028829;28;20102;-76
2023/04/14 15:02:57;;;;;;;10.35;2.42;;;;;;;;;;5030167;28;20471;-75
2023/04/14 15:05:42;;;;;;;3.22;1.35;;;;;;;;;;5029792;28;20106;-83
2023/04/14 15:08:28;;;;;;;2.80;1.20;;;;;;;;;;5028299;28;20324;-75
2023/04/14 15:11:13;;;;;;;4.85;1.73;;;;;;;;;;5027422;28;20105;-75
2023/04/14 15:13:58;;;;;;;4.47;1.55;;;;;;;;;;5030187;28;20037;-74
2023/04/14 15:16:44;;;;;;;5.80;1.50;;;;;;;;;;5028824;28;20087;-75
2023/04/14 15:19:29;;;;;;;3.35;1.50;;;;;;;;;;5028530;28;20033;-74
2023/04/14 15:22:15;;;;;;;6.97;1.70;;;;;;;;;;5028506;28;20436;-75
2023/04/14 15:25:00;;;;;;;3.55;1.42;;;;;;;;;;5028567;28;20091;-79
2023/04/14 15:27:45;;;;;;;3.25;1.27;;;;;;;;;;5012803;28;20029;-79
2023/04/14 15:30:30;;;;;;;2.85;1.40;;;;;;;;;;5001647;28;20485;-79
2023/04/14 15:33:16;;;;;;;2.70;1.48;;;;;;;;;;5013114;28;20037;-77
2023/04/14 15:36:01;;;;;;;4.32;1.55;;;;;;;;;;5021769;28;20030;-77
2023/04/14 15:38:48;;;;;;;2.90;1.42;;;;;;;;;;5008714;28;20068;-77
2023/04/14 15:41:35;;;;;;;2.03;1.05;;;;;;;;;;5027573;28;20038;-80
2023/04/14 15:44:20;;;;;;;3.13;1.52;;;;;;;;;;5014914;28;20030;-71
2023/04/14 15:47:05;;;;;;;4.03;1.48;;;;;;;;;;5027858;28;20037;-70
2023/04/14 15:49:51;;;;;;;3.70;1.50;;;;;;;;;;5023810;28;20464;-70
2023/04/14 15:52:37;;;;;;;3.40;1.40;;;;;;;;;;5022202;28;20030;-72
2023/04/14 15:55:22;;;;;;;4.80;1.55;;;;;;;;;;5027687;28;20061;-75
2023/04/14 15:58:08;;;;;;;2.63;1.30;;;;;;;;;;5028549;28;20033;-74
2023/04/14 16:00:53;;;;;;;2.97;1.60;;;;;;;;;;5026918;28;20091;-80
2023/04/14 16:03:38;;;;;;;3.83;1.60;;;;;;;;;;5024413;28;20525;-72
2023/04/14 16:06:23;;;;;;;2.88;1.25;;;;;;;;;;5038330;28;20120;-73
2023/04/14 16:09:09;;;;;;;3.85;1.35;;;;;;;;;;5025453;28;20134;-73
2023/04/14 16:11:55;;;;;;;5.70;1.80;;;;;;;;;;5027098;28;20079;-74
2023/04/14 16:14:41;;;;;;;3.75;1.25;;;;;;;;;;5026891;28;20063;-71
2023/04/14 16:17:27;;;;;;;3.70;1.65;;;;;;;;;;5026717;28;20033;-73
2023/04/14 16:20:12;;;;;;;2.58;1.10;;;;;;;;;;5027964;28;20080;-75
2023/04/14 16:22:57;;;;;;;4.97;1.45;;;;;;;;;;5026947;28;20028;-83
2023/04/14 16:25:46;;;;;;;2.88;1.15;;;;;;;;;;5027397;28;20033;-85
2023/04/14 16:28:32;;;;;;;5.20;1.70;;;;;;;;;;5016904;28;20034;-86
2023/04/14 16:31:17;;;;;;;3.00;1.38;;;;;;;;;;5012592;28;20069;-86
2023/04/14 16:34:02;;;;;;;5.80;1.65;;;;;;;;;;5025732;28;20044;-88
2023/04/14 16:36:48;;;;;;;5.15;2.08;;;;;;;;;;5026324;28;20029;-75
2023/04/14 16:39:33;;;;;;;3.40;1.88;;;;;;;;;;5006429;28;20359;-72